Latest Weather Observations for Hindmarsh Island

IDS60901

Issued at 8:31 pm CST Friday 6 May 2016 (issued every 10 minutes, with the page automatically refreshed every 10 minutes)

About weather observations | Map of Adelaide area stations | Latest observations for Adelaide area | Other Formats
Station Details ID: 023894 Name: HINDMARSH ISLAND AWS Lat: -35.52 Lon: 138.82 Height: 11.0 m
Data from the previous 72 hours. | See also: Recent months at Hindmarsh Island
Date/Time
CST
Tmp

°C
App
Tmp
°C
Dew
Point
°C
Rel
Hum
%
Delta-T

°C
Wind Press
QNH
hPa
Press
MSL
hPa
Rain
since
9 am
mm
Dir
 
Spd
km/h
Gust
km/h
Spd
kts
Gust
kts
06/08:30pm 14.7 14.1 12.4 86 1.3 N 7 9 4 5 1014.8 - 0.0
06/08:00pm 14.9 14.9 12.4 85 1.4 NE 4 7 2 4 1014.7 - 0.0
06/07:30pm 15.2 14.8 12.5 84 1.5 E 6 7 3 4 1014.7 - 0.0
06/07:00pm 15.3 14.2 12.1 81 1.7 ESE 9 13 5 7 1014.6 - 0.0
06/06:30pm 16.3 14.8 13.0 81 1.8 SSE 13 15 7 8 1014.3 - 0.0
06/06:00pm 16.4 14.5 12.9 80 1.9 SSE 15 17 8 9 1014.2 1014.2 0.0
06/05:30pm 16.6 13.9 12.8 78 2.1 SSE 19 20 10 11 1013.8 - 0.0
06/05:00pm 17.1 14.4 13.0 77 2.3 S 19 20 10 11 1013.6 - 0.0
06/04:30pm 17.1 14.8 13.0 77 2.3 S 17 20 9 11 1013.8 - 0.0
06/04:00pm 17.6 14.8 13.3 76 2.4 S 20 24 11 13 1013.7 - 0.0
06/03:30pm 17.9 15.1 13.2 74 2.6 S 20 24 11 13 1013.7 - 0.0
06/03:00pm 18.6 15.5 13.5 72 2.9 S 22 24 12 13 1013.6 1013.5 0.0
06/02:30pm 18.8 15.6 13.2 70 3.2 S 22 26 12 14 1013.4 - 0.0
06/02:00pm 19.4 17.2 14.4 73 2.9 S 19 22 10 12 1013.2 - 0.0
06/01:30pm 19.6 17.3 14.2 71 3.1 S 19 24 10 13 1013.5 - 0.0
06/01:00pm 19.1 16.7 13.9 72 3.0 S 19 20 10 11 1013.7 - 0.0
06/12:30pm 20.0 18.0 13.9 68 3.5 S 17 19 9 10 1014.4 - 0.0
06/12:00pm 19.7 17.4 12.9 65 3.8 S 17 20 9 11 1014.7 1014.8 0.0
06/11:30am 19.7 18.1 12.7 64 3.9 S 13 17 7 9 1015.1 - 0.0
06/11:00am 20.0 18.9 14.4 70 3.3 SSW 13 15 7 8 1015.4 - 0.0
06/10:30am 18.7 18.2 13.8 73 2.8 SSW 9 9 5 5 1015.4 - 0.0
06/10:00am 18.4 18.2 13.5 73 2.8 SSW 7 9 4 5 1015.3 - 0.0
06/09:30am 18.2 17.8 13.1 72 2.9 W 7 9 4 5 1015.4 - 0.0
06/09:00am 17.5 17.3 13.0 75 2.5 WNW 6 7 3 4 1015.4 1015.4 0.0
06/08:30am 16.1 16.6 12.7 80 1.9 NNW 2 6 1 3 1015.3 - 0.0
06/08:00am 14.7 13.6 12.0 84 1.5 NNW 9 9 5 5 1015.1 - 0.0
06/07:30am 13.7 12.4 11.2 85 1.3 NW 9 9 5 5 1014.8 - 0.0
06/07:00am 13.9 13.1 11.2 84 1.4 NNW 6 7 3 4 1014.3 - 0.0
06/06:30am 14.6 13.5 11.9 84 1.5 NNW 9 9 5 5 1013.7 - 0.0
06/06:00am 15.0 13.9 11.8 81 1.7 NNW 9 11 5 6 1013.6 1013.6 0.0
06/05:30am 15.3 14.1 11.7 79 1.9 NW 9 11 5 6 1013.4 - 0.0
06/05:00am 15.6 14.5 12.0 79 2.0 WNW 9 9 5 5 1013.1 - 0.0
06/04:30am 15.8 14.6 11.6 76 2.3 WNW 9 9 5 5 1012.8 - 0.0
06/04:00am 16.0 14.8 11.6 75 2.4 WNW 9 11 5 6 1012.5 - 0.0
06/03:30am 16.1 14.8 11.3 73 2.6 WNW 9 11 5 6 1012.5 - 0.0
06/03:00am 16.4 14.3 11.1 71 2.8 NW 13 15 7 8 1012.5 1012.5 0.0
06/02:30am 16.5 15.5 11.0 70 2.9 WNW 7 11 4 6 1012.4 - 0.0
06/02:00am 16.0 15.2 11.6 75 2.4 W 7 9 4 5 1012.4 - 0.0
06/01:30am 16.6 15.5 11.9 74 2.6 WSW 9 13 5 7 1012.1 - 0.0
06/01:00am 15.9 15.0 11.3 74 2.5 SW 7 11 4 6 1012.1 - 0.0
06/12:30am 15.6 14.7 11.2 75 2.4 SSW 7 11 4 6 1011.8 - 0.0
06/12:00am 15.3 12.7 9.2 67 3.1 N 13 15 7 8 1011.6 1011.5 0.0
 
Date/Time
CST
Tmp

°C
App
Tmp
°C
Dew
Point
°C
Rel
Hum
%
Delta-T

°C
Wind Press
QNH
hPa
Press
MSL
hPa
Rain
since
9 am
mm
Dir
 
Spd
km/h
Gust
km/h
Spd
kts
Gust
kts
05/11:30pm 15.6 12.9 9.1 65 3.3 N 13 17 7 9 1011.3 - 0.0
05/11:00pm 16.2 13.2 9.4 64 3.5 N 15 17 8 9 1011.4 - 0.0
05/10:30pm 16.3 13.4 9.5 64 3.5 N 15 17 8 9 1011.6 - 0.0
05/10:00pm 16.3 13.7 9.3 63 3.6 N 13 15 7 8 1011.7 - 0.0
05/09:30pm 16.4 13.4 9.1 62 3.8 N 15 17 8 9 1011.7 - 0.0
05/09:00pm 16.5 13.9 9.4 63 3.7 N 13 17 7 9 1011.7 1011.7 0.0
05/08:30pm 15.8 13.5 9.0 64 3.5 NE 11 13 6 7 1011.7 - 0.0
05/08:00pm 16.6 14.2 8.8 60 4.0 NNE 11 13 6 7 1011.5 - 0.0
05/07:30pm 17.6 15.0 9.2 58 4.4 NNE 13 17 7 9 1011.3 - 0.0
05/07:00pm 17.2 14.4 8.6 57 4.4 NNE 13 15 7 8 1011.2 - 0.0
05/06:30pm 20.8 18.0 8.4 45 6.5 N 13 17 7 9 1011.2 - 0.0
05/06:00pm 21.3 18.1 8.6 44 6.7 NNW 15 20 8 11 1010.8 1010.8 0.0
05/05:30pm 21.6 18.0 8.5 43 6.9 NNW 17 24 9 13 1010.6 - 0.0
05/05:00pm 22.7 17.5 8.8 41 7.4 NW 26 35 14 19 1010.6 - 0.0
05/04:30pm 23.3 18.8 8.6 39 7.8 NNW 22 35 12 19 1010.4 - 0.0
05/04:23pm 23.4 17.9 9.0 40 7.7 NNW 28 46 15 25 1010.4 - 0.0
05/04:22pm 23.4 17.9 9.0 40 7.7 NNW 28 46 15 25 1010.4 - 0.0
05/04:00pm 23.2 16.2 8.5 39 7.8 NNW 35 46 19 25 1010.4 - 0.0
05/03:34pm 24.0 17.8 9.2 39 8.0 NW 32 50 17 27 1010.5 - 0.0
05/03:30pm 23.9 17.5 9.5 40 7.8 NNW 33 50 18 27 1010.5 - 0.0
05/03:28pm 23.7 17.4 8.9 39 7.9 NNW 32 50 17 27 1010.5 - 0.0
05/03:27pm 23.7 17.4 8.9 39 7.9 NNW 32 50 17 27 1010.5 - 0.0
05/03:00pm 24.1 18.8 9.7 40 7.9 NNW 28 44 15 24 1010.4 1010.5 0.0
05/02:30pm 23.8 16.3 9.4 40 7.8 NW 39 61 21 33 1010.5 - 0.0
05/02:01pm 23.5 17.3 9.9 42 7.4 NW 33 56 18 30 1010.6 - 0.0
05/02:00pm 23.5 17.3 9.9 42 7.4 NW 33 56 18 30 1010.6 - 0.0
05/01:30pm 22.6 17.1 10.4 46 6.7 NW 30 43 16 23 1011.0 - 0.0
05/01:22pm 22.6 16.1 10.4 46 6.7 NW 35 54 19 29 1011.2 - 0.0
05/01:21pm 22.6 16.1 10.4 46 6.7 NW 35 54 19 29 1011.2 - 0.0
05/01:00pm 22.3 17.2 10.5 47 6.5 NW 28 39 15 21 1011.4 - 0.0
05/12:30pm 22.2 16.2 10.0 46 6.6 NW 32 43 17 23 1011.9 - 0.0
05/12:12pm 22.2 15.9 9.7 45 6.8 NW 33 52 18 28 1011.9 - 0.0
05/12:00pm 22.1 14.6 9.6 45 6.7 NW 39 48 21 26 1012.2 1012.2 0.0
05/11:30am 22.0 14.5 9.5 45 6.7 NW 39 54 21 29 1012.5 - 0.0
05/11:00am 21.1 12.8 9.4 47 6.2 NW 43 56 23 30 1012.9 - 0.0
05/10:30am 21.1 15.0 9.7 48 6.1 NW 32 50 17 27 1013.4 - 0.0
05/10:00am 20.8 15.5 10.0 50 5.8 NW 28 46 15 25 1013.8 - 0.0
05/09:56am 20.6 15.4 10.1 51 5.7 NW 28 46 15 25 1013.9 - 0.0
05/09:55am 20.6 15.4 10.1 51 5.7 NW 28 46 15 25 1013.9 - 0.0
05/09:30am 20.0 15.9 10.1 53 5.3 NW 22 26 12 14 1014.2 - 0.0
05/09:00am 18.4 16.2 10.7 61 4.1 N 13 20 7 11 1014.2 1014.2 0.0
05/08:30am 16.5 14.0 11.0 70 2.9 N 15 22 8 12 1014.3 - 0.0
05/08:00am 15.5 13.1 11.3 76 2.3 NNE 15 19 8 10 1014.3 - 0.0
05/07:30am 14.0 11.5 11.0 82 1.6 NE 15 17 8 9 1014.1 - 0.0
05/07:00am 14.5 12.3 10.9 79 1.9 NNE 13 17 7 9 1014.0 - 0.0
05/06:30am 15.3 14.1 11.5 78 2.0 N 9 15 5 8 1013.8 - 0.0
05/06:00am 16.1 14.2 11.9 76 2.3 N 13 19 7 10 1013.6 1013.6 0.0
05/05:30am 16.3 14.9 12.1 76 2.3 N 11 17 6 9 1013.6 - 0.0
05/05:00am 16.4 14.7 12.6 78 2.1 N 13 17 7 9 1013.5 - 0.0
05/04:30am 16.5 14.4 12.5 77 2.2 N 15 20 8 11 1013.5 - 0.0
05/04:00am 16.2 14.5 12.6 79 2.0 N 13 17 7 9 1013.4 - 0.0
05/03:30am 16.5 14.9 12.7 78 2.1 N 13 17 7 9 1013.4 - 0.0
05/03:00am 16.6 15.0 12.8 78 2.1 N 13 20 7 11 1013.6 1013.6 0.0
05/02:30am 15.7 15.1 12.3 80 1.9 NE 7 11 4 6 1013.9 - 0.0
05/02:00am 16.1 15.5 12.3 78 2.1 N 7 9 4 5 1014.1 - 0.0
05/01:30am 16.4 15.5 12.6 78 2.1 N 9 13 5 7 1014.4 - 0.0
05/01:00am 15.6 15.2 11.2 75 2.4 SSE 4 7 2 4 1014.4 - 0.0
05/12:30am 15.5 14.1 10.9 74 2.4 N 9 11 5 6 1014.5 - 0.0
05/12:00am 15.8 13.5 10.6 71 2.8 NNE 13 17 7 9 1014.5 1014.5 0.0
 
Date/Time
CST
Tmp

°C
App
Tmp
°C
Dew
Point
°C
Rel
Hum
%
Delta-T

°C
Wind Press
QNH
hPa
Press
MSL
hPa
Rain
since
9 am
mm
Dir
 
Spd
km/h
Gust
km/h
Spd
kts
Gust
kts
04/11:30pm 16.0 13.3 10.5 70 2.9 N 15 19 8 10 1014.7 - 0.0
04/11:00pm 15.5 12.9 10.7 73 2.5 N 15 17 8 9 1014.9 - 0.0
04/10:30pm 15.8 13.2 10.8 72 2.7 N 15 24 8 13 1015.1 - 0.0
04/10:00pm 14.9 12.3 10.7 76 2.2 N 15 19 8 10 1015.3 - 0.0
04/09:30pm 15.0 13.1 10.6 75 2.3 N 11 15 6 8 1015.4 - 0.0
04/09:00pm 14.8 12.4 10.2 74 2.4 NNE 13 17 7 9 1015.4 1015.4 0.0
04/08:30pm 15.3 13.5 10.7 74 2.4 NNE 11 13 6 7 1015.4 - 0.0
04/08:00pm 15.3 13.4 10.5 73 2.5 N 11 15 6 8 1015.4 - 0.0
04/07:30pm 15.7 13.3 10.0 69 3.0 N 13 15 7 8 1015.3 - 0.0
04/07:00pm 15.5 13.1 10.1 70 2.8 N 13 15 7 8 1015.1 - 0.0
04/06:30pm 16.1 13.4 10.2 68 3.1 NNW 15 20 8 11 1014.8 - 0.0
04/06:00pm 16.6 14.3 10.5 67 3.2 NNW 13 19 7 10 1014.6 1014.6 0.0
04/05:30pm 16.6 13.7 10.9 69 3.1 NNW 17 20 9 11 1014.5 - 0.0
04/05:00pm 16.6 14.5 11.1 70 3.0 NNW 13 19 7 10 1014.5 - 0.0
04/04:30pm 16.3 13.0 11.0 71 2.8 NNW 19 24 10 13 1014.5 - 0.0
04/04:00pm 16.5 12.6 10.8 69 3.0 NW 22 37 12 20 1014.4 - 0.0
04/03:30pm 16.7 12.1 11.2 70 3.0 NNW 26 35 14 19 1014.3 - 0.0
04/03:00pm 16.7 13.1 10.5 67 3.3 NNW 20 28 11 15 1014.2 1014.3 0.0
04/02:30pm 17.1 11.7 9.5 61 4.0 WNW 28 33 15 18 1014.3 - 0.0
04/02:00pm 17.3 12.2 9.2 59 4.2 NW 26 35 14 19 1014.5 - 0.0
04/01:30pm 17.3 11.9 9.5 60 4.1 NW 28 43 15 23 1014.7 - 0.0
04/01:00pm 18.0 13.2 8.8 55 4.8 WNW 24 32 13 17 1014.9 - 0.0
04/12:30pm 17.8 12.4 8.1 53 5.0 WNW 26 35 14 19 1015.2 - 0.0
04/12:00pm 18.1 14.3 8.9 55 4.8 W 19 35 10 19 1015.6 1015.6 0.0
04/11:36am 18.3 12.7 8.6 53 5.0 NW 28 35 15 19 1015.6 - 0.0
04/11:30am 17.6 16.4 10.2 62 3.9 WNW 7 13 4 7 1015.9 - 0.0
04/11:00am 16.0 13.8 10.7 71 2.8 W 13 19 7 10 1016.3 - 0.0
04/10:30am 16.6 13.1 8.8 60 4.0 NW 17 26 9 14 1016.5 - 0.0
04/10:00am 16.0 12.8 8.5 61 3.8 WNW 15 24 8 13 1016.5 - 0.0
04/09:30am 15.1 13.2 9.0 67 3.1 WNW 9 13 5 7 1016.4 - 0.0
04/09:00am 14.1 12.3 9.5 74 2.4 W 9 11 5 6 1016.4 1016.4 1.8
04/08:30am 13.2 11.4 9.3 77 2.0 W 9 13 5 7 1016.3 - 1.8
04/08:00am 12.3 10.0 9.0 80 1.7 NNW 11 13 6 7 1016.0 - 1.8
04/07:30am 11.5 8.7 8.4 81 1.5 NW 13 15 7 8 1015.6 - 1.8
04/07:00am 11.2 8.7 8.2 82 1.5 WNW 11 13 6 7 1015.0 - 1.8
04/06:30am 11.3 8.8 8.3 82 1.5 NW 11 15 6 8 1014.6 - 1.8
04/06:00am 11.6 9.2 8.5 81 1.5 NW 11 11 6 6 1014.4 1014.4 1.8
04/05:30am 11.8 9.4 8.5 80 1.6 NNW 11 13 6 7 1014.2 - 1.8
04/05:00am 13.0 10.3 9.1 77 2.0 W 13 17 7 9 1013.9 - 1.8
04/04:30am 12.1 9.7 8.8 80 1.6 WNW 11 13 6 7 1013.8 - 1.8
04/04:00am 12.3 9.8 8.4 77 1.9 NW 11 15 6 8 1013.4 - 1.8
04/03:30am 12.7 9.9 8.6 76 2.0 WNW 13 15 7 8 1013.3 - 1.8
04/03:00am 13.3 10.5 8.6 73 2.4 WNW 13 17 7 9 1013.4 1013.4 1.8
04/02:30am 13.0 10.1 8.1 72 2.4 WNW 13 19 7 10 1013.2 - 1.8
04/02:00am 12.5 10.0 8.0 74 2.2 WNW 11 15 6 8 1013.0 - 1.8
04/01:30am 12.6 9.6 7.9 73 2.3 WNW 13 15 7 8 1012.8 - 1.8
04/01:00am 12.8 9.5 8.1 73 2.3 WNW 15 17 8 9 1012.9 - 1.8
04/12:30am 13.3 10.5 8.4 72 2.4 WNW 13 17 7 9 1012.9 - 1.8
04/12:00am 12.9 10.0 8.2 73 2.3 WNW 13 17 7 9 1012.9 1012.9 1.8
 
Date/Time
CST
Tmp

°C
App
Tmp
°C
Dew
Point
°C
Rel
Hum
%
Delta-T

°C
Wind Press
QNH
hPa
Press
MSL
hPa
Rain
since
9 am
mm
Dir
 
Spd
km/h
Gust
km/h
Spd
kts
Gust
kts
03/11:30pm 13.4 10.3 8.7 73 2.4 WNW 15 19 8 10 1012.8 - 1.8
03/11:00pm 13.2 10.3 8.3 72 2.4 NW 13 17 7 9 1012.8 - 1.8
03/10:30pm 14.1 11.3 8.5 69 2.8 W 13 19 7 10 1012.8 - 1.8
03/10:00pm 14.4 10.4 8.1 66 3.1 W 19 26 10 14 1012.7 - 1.8
03/09:30pm 14.6 10.6 8.3 66 3.2 W 19 26 10 14 1012.4 - 1.8
03/09:00pm 14.9 10.7 8.4 65 3.3 W 20 28 11 15 1012.2 1012.2 1.8

Latest Capital City Observations: Canberra | Sydney | Melbourne | Brisbane | Adelaide | Perth | Hobart | Darwin

Other Formats:

Comma delimited format used in spreadsheet applications
http://www.bom.gov.au/fwo/IDS60901/IDS60901.94677.axf

JavaScript Object Notation format (JSON) in row-major order
http://www.bom.gov.au/fwo/IDS60901/IDS60901.94677.json